KBNA

Nashville International Airport

Nashville, Tennessee, USA
METAR KBNA 172053Z 17007KT 5SM -RA BR BKN006 BKN020 OVC030 07/06 A3006 RMK AO2 SLP179 P0002 60024 T00720061 56020
Observed Flight Rules
Feb-17 @ 20:53 UTC (41 minutes ago) Instrument Flight Rules
Wind Visibility Clouds Conditions
170° at 7 knots 5 miles
  • Broken at 600' AGL
  • Broken at 2,000' AGL
  • Overcast at 3,000' AGL
  • Light Rain
  • Mist
Temperatures Readings Precipitation
Current 7°C / 45°F
Dewpoint 6°C / 43°F
Humidity 93%
Altimeter 30.06" Hg
Pressure 1017.9 hPa
Elevation 210
Current Rain 0.02
METAR KBNA 172053Z 17007KT 5SM -RA BR BKN006 BKN020 OVC030 07/06 A3006 RMK AO2 SLP179 P0002 60024 T00720061 56020
Observed Flight Rules
Feb-17 @ 20:53 UTC
(41 minutes ago)
IFR
Wind Visibility
170° at 7 knots 5 miles
Clouds
  • Broken at 600' AGL
  • Broken at 2,000' AGL
  • Overcast at 3,000' AGL
Conditions
  • Light Rain
  • Mist
Temperature Dewpoint
7°C / 45°F 6°C / 43°F
Humidity Altimeter Pressure
93% 30.06" Hg 1017.9 hPa
Current Rain
0.02